sensor_id;sensor_type;location;lat;lon;timestamp;P1;durP1;ratioP1;P2;durP2;ratioP2
7215;SDS011;3649;48.798;9.798;2023-05-15T00:02:18;4.70;;;4.00;;
7215;SDS011;3649;48.798;9.798;2023-05-15T00:04:45;4.80;;;4.37;;
7215;SDS011;3649;48.798;9.798;2023-05-15T00:07:15;4.60;;;4.20;;
7215;SDS011;3649;48.798;9.798;2023-05-15T00:09:42;4.60;;;4.20;;
7215;SDS011;3649;48.798;9.798;2023-05-15T00:12:09;4.53;;;4.13;;
7215;SDS011;3649;48.798;9.798;2023-05-15T00:14:35;4.70;;;4.30;;
7215;SDS011;3649;48.798;9.798;2023-05-15T00:17:02;5.20;;;4.70;;
7215;SDS011;3649;48.798;9.798;2023-05-15T00:19:29;5.23;;;4.47;;
7215;SDS011;3649;48.798;9.798;2023-05-15T00:21:56;4.20;;;3.90;;
7215;SDS011;3649;48.798;9.798;2023-05-15T00:24:23;4.47;;;3.73;;
7215;SDS011;3649;48.798;9.798;2023-05-15T00:26:50;4.67;;;4.27;;
7215;SDS011;3649;48.798;9.798;2023-05-15T00:29:17;5.77;;;4.23;;
7215;SDS011;3649;48.798;9.798;2023-05-15T00:31:44;4.30;;;3.90;;
7215;SDS011;3649;48.798;9.798;2023-05-15T00:34:11;4.47;;;4.07;;
7215;SDS011;3649;48.798;9.798;2023-05-15T00:36:38;4.40;;;4.00;;
7215;SDS011;3649;48.798;9.798;2023-05-15T00:39:05;6.97;;;3.77;;
7215;SDS011;3649;48.798;9.798;2023-05-15T00:41:32;4.20;;;3.80;;
7215;SDS011;3649;48.798;9.798;2023-05-15T00:44:01;4.80;;;4.30;;
7215;SDS011;3649;48.798;9.798;2023-05-15T00:46:31;4.60;;;3.73;;
7215;SDS011;3649;48.798;9.798;2023-05-15T00:49:02;4.13;;;3.83;;
7215;SDS011;3649;48.798;9.798;2023-05-15T00:51:30;5.40;;;4.00;;
7215;SDS011;3649;48.798;9.798;2023-05-15T00:53:57;4.47;;;3.83;;
7215;SDS011;3649;48.798;9.798;2023-05-15T00:56:24;4.10;;;3.70;;
7215;SDS011;3649;48.798;9.798;2023-05-15T00:58:55;5.63;;;3.70;;
7215;SDS011;3649;48.798;9.798;2023-05-15T01:01:24;4.83;;;3.93;;
7215;SDS011;3649;48.798;9.798;2023-05-15T01:03:51;5.77;;;3.70;;
7215;SDS011;3649;48.798;9.798;2023-05-15T01:06:18;5.90;;;3.70;;
7215;SDS011;3649;48.798;9.798;2023-05-15T01:08:45;4.70;;;3.93;;
7215;SDS011;3649;48.798;9.798;2023-05-15T01:11:13;5.57;;;3.57;;
7215;SDS011;3649;48.798;9.798;2023-05-15T01:13:42;6.83;;;3.70;;
7215;SDS011;3649;48.798;9.798;2023-05-15T01:16:09;4.10;;;3.70;;
7215;SDS011;3649;48.798;9.798;2023-05-15T01:18:36;4.03;;;3.70;;
7215;SDS011;3649;48.798;9.798;2023-05-15T01:27:12;5.87;;;3.90;;
7215;SDS011;3649;48.798;9.798;2023-05-15T01:29:48;4.53;;;4.10;;
7215;SDS011;3649;48.798;9.798;2023-05-15T01:32:49;5.57;;;4.10;;
7215;SDS011;3649;48.798;9.798;2023-05-15T01:35:37;6.43;;;3.93;;
7215;SDS011;3649;48.798;9.798;2023-05-15T01:40:46;4.33;;;3.93;;
7215;SDS011;3649;48.798;9.798;2023-05-15T01:43:16;4.87;;;4.30;;
7215;SDS011;3649;48.798;9.798;2023-05-15T01:45:46;4.30;;;3.97;;
7215;SDS011;3649;48.798;9.798;2023-05-15T01:48:13;4.00;;;3.70;;
7215;SDS011;3649;48.798;9.798;2023-05-15T01:50:43;5.13;;;3.63;;
7215;SDS011;3649;48.798;9.798;2023-05-15T01:53:12;4.87;;;4.47;;
7215;SDS011;3649;48.798;9.798;2023-05-15T01:55:40;4.30;;;4.00;;
7215;SDS011;3649;48.798;9.798;2023-05-15T01:58:07;4.90;;;4.17;;
7215;SDS011;3649;48.798;9.798;2023-05-15T02:00:35;5.13;;;4.60;;
7215;SDS011;3649;48.798;9.798;2023-05-15T02:03:03;5.03;;;4.60;;
7215;SDS011;3649;48.798;9.798;2023-05-15T02:05:32;5.27;;;4.80;;
7215;SDS011;3649;48.798;9.798;2023-05-15T02:08:01;5.17;;;4.70;;
7215;SDS011;3649;48.798;9.798;2023-05-15T02:10:29;4.93;;;4.60;;
7215;SDS011;3649;48.798;9.798;2023-05-15T02:12:58;6.23;;;5.07;;
7215;SDS011;3649;48.798;9.798;2023-05-15T02:15:26;5.97;;;5.20;;
7215;SDS011;3649;48.798;9.798;2023-05-15T02:17:54;5.27;;;4.80;;
7215;SDS011;3649;48.798;9.798;2023-05-15T02:20:21;5.40;;;5.00;;
7215;SDS011;3649;48.798;9.798;2023-05-15T02:22:48;7.53;;;5.03;;
7215;SDS011;3649;48.798;9.798;2023-05-15T02:25:15;6.50;;;5.87;;
7215;SDS011;3649;48.798;9.798;2023-05-15T02:27:45;5.97;;;5.47;;
7215;SDS011;3649;48.798;9.798;2023-05-15T02:36:22;8.07;;;6.03;;
7215;SDS011;3649;48.798;9.798;2023-05-15T02:38:55;8.63;;;5.53;;
7215;SDS011;3649;48.798;9.798;2023-05-15T02:41:24;5.70;;;5.20;;
7215;SDS011;3649;48.798;9.798;2023-05-15T02:43:52;5.77;;;5.27;;
7215;SDS011;3649;48.798;9.798;2023-05-15T02:46:21;7.33;;;5.93;;
7215;SDS011;3649;48.798;9.798;2023-05-15T02:48:50;6.43;;;5.83;;
7215;SDS011;3649;48.798;9.798;2023-05-15T02:51:18;6.43;;;5.13;;
7215;SDS011;3649;48.798;9.798;2023-05-15T02:53:46;7.03;;;5.07;;
7215;SDS011;3649;48.798;9.798;2023-05-15T02:56:14;6.47;;;5.87;;
7215;SDS011;3649;48.798;9.798;2023-05-15T02:58:40;6.67;;;6.07;;
7215;SDS011;3649;48.798;9.798;2023-05-15T03:01:07;6.30;;;5.80;;
7215;SDS011;3649;48.798;9.798;2023-05-15T03:03:34;6.53;;;5.80;;
7215;SDS011;3649;48.798;9.798;2023-05-15T03:06:01;8.10;;;5.33;;
7215;SDS011;3649;48.798;9.798;2023-05-15T03:08:28;6.10;;;5.50;;
7215;SDS011;3649;48.798;9.798;2023-05-15T03:10:55;6.20;;;5.70;;
7215;SDS011;3649;48.798;9.798;2023-05-15T03:13:23;5.70;;;5.20;;
7215;SDS011;3649;48.798;9.798;2023-05-15T03:15:50;7.40;;;5.77;;
7215;SDS011;3649;48.798;9.798;2023-05-15T03:18:18;7.40;;;6.47;;
7215;SDS011;3649;48.798;9.798;2023-05-15T03:20:48;8.27;;;6.07;;
7215;SDS011;3649;48.798;9.798;2023-05-15T03:23:18;6.27;;;5.77;;
7215;SDS011;3649;48.798;9.798;2023-05-15T03:25:44;6.23;;;5.73;;
7215;SDS011;3649;48.798;9.798;2023-05-15T03:28:11;6.50;;;6.00;;
7215;SDS011;3649;48.798;9.798;2023-05-15T03:30:38;6.50;;;6.00;;
7215;SDS011;3649;48.798;9.798;2023-05-15T03:33:08;6.27;;;5.73;;
7215;SDS011;3649;48.798;9.798;2023-05-15T03:35:35;7.27;;;6.40;;
7215;SDS011;3649;48.798;9.798;2023-05-15T03:38:02;12.93;;;6.30;;
7215;SDS011;3649;48.798;9.798;2023-05-15T03:40:29;6.23;;;5.63;;
7215;SDS011;3649;48.798;9.798;2023-05-15T03:42:56;6.47;;;5.90;;
7215;SDS011;3649;48.798;9.798;2023-05-15T03:45:23;7.73;;;6.07;;
7215;SDS011;3649;48.798;9.798;2023-05-15T03:47:51;6.43;;;5.83;;
7215;SDS011;3649;48.798;9.798;2023-05-15T03:50:18;6.50;;;5.27;;
7215;SDS011;3649;48.798;9.798;2023-05-15T03:52:45;5.47;;;4.97;;
7215;SDS011;3649;48.798;9.798;2023-05-15T03:55:12;6.80;;;6.20;;
7215;SDS011;3649;48.798;9.798;2023-05-15T03:57:39;6.13;;;5.57;;
7215;SDS011;3649;48.798;9.798;2023-05-15T04:00:07;6.63;;;5.87;;
7215;SDS011;3649;48.798;9.798;2023-05-15T04:02:37;8.10;;;5.67;;
7215;SDS011;3649;48.798;9.798;2023-05-15T04:05:04;5.83;;;5.33;;
7215;SDS011;3649;48.798;9.798;2023-05-15T04:07:32;5.70;;;5.20;;
7215;SDS011;3649;48.798;9.798;2023-05-15T04:10:00;6.27;;;5.57;;
7215;SDS011;3649;48.798;9.798;2023-05-15T04:12:28;6.23;;;5.63;;
7215;SDS011;3649;48.798;9.798;2023-05-15T04:15:12;5.53;;;5.10;;
7215;SDS011;3649;48.798;9.798;2023-05-15T04:17:47;5.77;;;5.17;;
7215;SDS011;3649;48.798;9.798;2023-05-15T04:20:17;6.53;;;5.17;;
7215;SDS011;3649;48.798;9.798;2023-05-15T04:22:46;5.97;;;5.47;;
7215;SDS011;3649;48.798;9.798;2023-05-15T04:25:13;7.13;;;5.63;;
7215;SDS011;3649;48.798;9.798;2023-05-15T04:27:41;7.60;;;5.83;;
7215;SDS011;3649;48.798;9.798;2023-05-15T04:30:09;6.67;;;5.87;;
7215;SDS011;3649;48.798;9.798;2023-05-15T04:32:37;6.80;;;5.93;;
7215;SDS011;3649;48.798;9.798;2023-05-15T04:35:05;6.30;;;5.47;;
7215;SDS011;3649;48.798;9.798;2023-05-15T04:37:52;6.57;;;6.00;;
7215;SDS011;3649;48.798;9.798;2023-05-15T04:40:19;7.17;;;5.80;;
7215;SDS011;3649;48.798;9.798;2023-05-15T04:42:46;7.30;;;6.60;;
7215;SDS011;3649;48.798;9.798;2023-05-15T04:45:13;7.50;;;6.77;;
7215;SDS011;3649;48.798;9.798;2023-05-15T04:47:40;9.83;;;6.27;;
7215;SDS011;3649;48.798;9.798;2023-05-15T04:50:07;7.47;;;6.70;;
7215;SDS011;3649;48.798;9.798;2023-05-15T04:52:34;6.83;;;6.23;;
7215;SDS011;3649;48.798;9.798;2023-05-15T04:55:01;6.37;;;5.83;;
7215;SDS011;3649;48.798;9.798;2023-05-15T04:57:28;6.57;;;5.97;;
7215;SDS011;3649;48.798;9.798;2023-05-15T04:59:55;7.13;;;6.13;;
7215;SDS011;3649;48.798;9.798;2023-05-15T05:02:23;7.00;;;6.40;;
7215;SDS011;3649;48.798;9.798;2023-05-15T05:04:50;7.03;;;6.33;;
7215;SDS011;3649;48.798;9.798;2023-05-15T05:07:17;7.63;;;5.80;;
7215;SDS011;3649;48.798;9.798;2023-05-15T05:09:44;8.67;;;6.30;;
7215;SDS011;3649;48.798;9.798;2023-05-15T05:12:11;7.17;;;6.47;;
7215;SDS011;3649;48.798;9.798;2023-05-15T05:14:38;6.93;;;6.23;;
7215;SDS011;3649;48.798;9.798;2023-05-15T05:17:07;11.57;;;6.07;;
7215;SDS011;3649;48.798;9.798;2023-05-15T05:19:34;5.97;;;5.47;;
7215;SDS011;3649;48.798;9.798;2023-05-15T05:22:02;7.83;;;5.97;;
7215;SDS011;3649;48.798;9.798;2023-05-15T05:24:31;5.97;;;5.47;;
7215;SDS011;3649;48.798;9.798;2023-05-15T05:26:57;6.53;;;5.97;;
7215;SDS011;3649;48.798;9.798;2023-05-15T05:29:25;6.30;;;5.77;;
7215;SDS011;3649;48.798;9.798;2023-05-15T05:31:52;7.47;;;5.77;;
7215;SDS011;3649;48.798;9.798;2023-05-15T05:34:19;6.33;;;5.73;;
7215;SDS011;3649;48.798;9.798;2023-05-15T05:36:46;6.73;;;6.07;;
7215;SDS011;3649;48.798;9.798;2023-05-15T05:39:14;8.47;;;5.67;;
7215;SDS011;3649;48.798;9.798;2023-05-15T05:41:44;5.93;;;5.43;;
7215;SDS011;3649;48.798;9.798;2023-05-15T05:44:10;5.70;;;5.20;;
7215;SDS011;3649;48.798;9.798;2023-05-15T05:46:37;5.97;;;5.50;;
7215;SDS011;3649;48.798;9.798;2023-05-15T05:49:04;8.90;;;5.60;;
7215;SDS011;3649;48.798;9.798;2023-05-15T05:51:33;6.43;;;5.77;;
7215;SDS011;3649;48.798;9.798;2023-05-15T05:54:02;8.03;;;5.87;;
7215;SDS011;3649;48.798;9.798;2023-05-15T05:56:29;5.90;;;5.40;;
7215;SDS011;3649;48.798;9.798;2023-05-15T05:58:56;5.80;;;5.30;;
7215;SDS011;3649;48.798;9.798;2023-05-15T06:01:24;5.93;;;5.43;;
7215;SDS011;3649;48.798;9.798;2023-05-15T06:03:52;5.53;;;5.03;;
7215;SDS011;3649;48.798;9.798;2023-05-15T06:06:20;6.40;;;5.87;;
7215;SDS011;3649;48.798;9.798;2023-05-15T06:08:47;5.70;;;5.20;;
7215;SDS011;3649;48.798;9.798;2023-05-15T06:11:14;5.97;;;5.47;;
7215;SDS011;3649;48.798;9.798;2023-05-15T06:13:41;5.30;;;4.90;;
7215;SDS011;3649;48.798;9.798;2023-05-15T06:16:08;6.33;;;4.67;;
7215;SDS011;3649;48.798;9.798;2023-05-15T06:18:35;6.10;;;5.33;;
7215;SDS011;3649;48.798;9.798;2023-05-15T06:21:02;5.70;;;5.20;;
7215;SDS011;3649;48.798;9.798;2023-05-15T06:23:29;5.73;;;4.40;;
7215;SDS011;3649;48.798;9.798;2023-05-15T06:25:56;4.93;;;4.53;;
7215;SDS011;3649;48.798;9.798;2023-05-15T06:28:23;5.07;;;4.67;;
7215;SDS011;3649;48.798;9.798;2023-05-15T06:30:50;5.00;;;4.47;;
7215;SDS011;3649;48.798;9.798;2023-05-15T06:33:18;5.33;;;4.83;;
7215;SDS011;3649;48.798;9.798;2023-05-15T06:35:46;5.03;;;4.53;;
7215;SDS011;3649;48.798;9.798;2023-05-15T06:38:13;5.13;;;4.53;;
7215;SDS011;3649;48.798;9.798;2023-05-15T06:40:40;5.43;;;4.87;;
7215;SDS011;3649;48.798;9.798;2023-05-15T06:43:07;5.87;;;4.77;;
7215;SDS011;3649;48.798;9.798;2023-05-15T06:45:34;4.70;;;4.33;;
7215;SDS011;3649;48.798;9.798;2023-05-15T06:48:01;4.57;;;4.17;;
7215;SDS011;3649;48.798;9.798;2023-05-15T06:50:28;4.77;;;4.20;;
7215;SDS011;3649;48.798;9.798;2023-05-15T06:52:55;5.07;;;4.50;;
7215;SDS011;3649;48.798;9.798;2023-05-15T06:55:21;4.93;;;4.43;;
7215;SDS011;3649;48.798;9.798;2023-05-15T06:57:49;4.73;;;4.33;;
7215;SDS011;3649;48.798;9.798;2023-05-15T07:00:16;4.63;;;4.23;;
7215;SDS011;3649;48.798;9.798;2023-05-15T07:02:43;5.33;;;4.00;;
7215;SDS011;3649;48.798;9.798;2023-05-15T07:05:10;4.50;;;4.10;;
7215;SDS011;3649;48.798;9.798;2023-05-15T07:07:37;5.50;;;4.27;;
7215;SDS011;3649;48.798;9.798;2023-05-15T07:10:04;5.83;;;3.80;;
7215;SDS011;3649;48.798;9.798;2023-05-15T07:12:31;4.60;;;4.00;;
7215;SDS011;3649;48.798;9.798;2023-05-15T07:14:59;4.40;;;4.00;;
7215;SDS011;3649;48.798;9.798;2023-05-15T07:17:26;4.80;;;4.40;;
7215;SDS011;3649;48.798;9.798;2023-05-15T07:19:53;5.50;;;4.60;;
7215;SDS011;3649;48.798;9.798;2023-05-15T07:22:20;4.37;;;3.97;;
7215;SDS011;3649;48.798;9.798;2023-05-15T07:24:47;4.00;;;3.70;;
7215;SDS011;3649;48.798;9.798;2023-05-15T07:27:14;4.63;;;4.23;;
7215;SDS011;3649;48.798;9.798;2023-05-15T07:29:41;4.73;;;4.43;;
7215;SDS011;3649;48.798;9.798;2023-05-15T07:32:08;5.00;;;4.50;;
7215;SDS011;3649;48.798;9.798;2023-05-15T07:34:35;7.00;;;5.20;;
7215;SDS011;3649;48.798;9.798;2023-05-15T07:37:01;4.47;;;4.17;;
7215;SDS011;3649;48.798;9.798;2023-05-15T07:39:28;5.03;;;4.60;;
7215;SDS011;3649;48.798;9.798;2023-05-15T07:41:56;5.10;;;4.70;;
7215;SDS011;3649;48.798;9.798;2023-05-15T07:44:23;5.07;;;4.67;;
7215;SDS011;3649;48.798;9.798;2023-05-15T07:46:50;4.47;;;4.17;;
7215;SDS011;3649;48.798;9.798;2023-05-15T07:49:16;5.03;;;4.63;;
7215;SDS011;3649;48.798;9.798;2023-05-15T07:51:43;4.63;;;4.23;;
7215;SDS011;3649;48.798;9.798;2023-05-15T07:54:10;4.50;;;4.10;;
7215;SDS011;3649;48.798;9.798;2023-05-15T07:56:37;4.63;;;4.23;;
7215;SDS011;3649;48.798;9.798;2023-05-15T07:59:04;4.30;;;4.03;;
7215;SDS011;3649;48.798;9.798;2023-05-15T08:01:31;4.93;;;4.17;;
7215;SDS011;3649;48.798;9.798;2023-05-15T08:03:58;4.83;;;4.40;;
7215;SDS011;3649;48.798;9.798;2023-05-15T08:06:25;5.20;;;4.70;;
7215;SDS011;3649;48.798;9.798;2023-05-15T08:08:52;4.77;;;4.13;;
7215;SDS011;3649;48.798;9.798;2023-05-15T08:11:19;4.97;;;4.23;;
7215;SDS011;3649;48.798;9.798;2023-05-15T08:13:47;5.10;;;4.70;;
7215;SDS011;3649;48.798;9.798;2023-05-15T08:16:14;4.50;;;4.10;;
7215;SDS011;3649;48.798;9.798;2023-05-15T08:18:41;4.70;;;4.37;;
7215;SDS011;3649;48.798;9.798;2023-05-15T08:21:08;4.93;;;4.47;;
7215;SDS011;3649;48.798;9.798;2023-05-15T08:23:35;4.87;;;4.47;;
7215;SDS011;3649;48.798;9.798;2023-05-15T08:26:01;6.57;;;5.97;;
7215;SDS011;3649;48.798;9.798;2023-05-15T08:28:28;5.40;;;4.90;;
7215;SDS011;3649;48.798;9.798;2023-05-15T08:30:55;4.40;;;4.10;;
7215;SDS011;3649;48.798;9.798;2023-05-15T08:33:22;4.03;;;3.73;;
7215;SDS011;3649;48.798;9.798;2023-05-15T08:35:49;4.50;;;4.20;;
7215;SDS011;3649;48.798;9.798;2023-05-15T08:38:17;4.27;;;3.87;;
7215;SDS011;3649;48.798;9.798;2023-05-15T08:40:45;4.83;;;4.40;;
7215;SDS011;3649;48.798;9.798;2023-05-15T08:43:16;4.83;;;4.27;;
7215;SDS011;3649;48.798;9.798;2023-05-15T08:45:43;4.80;;;4.47;;
7215;SDS011;3649;48.798;9.798;2023-05-15T08:48:13;4.63;;;4.00;;
7215;SDS011;3649;48.798;9.798;2023-05-15T08:50:47;4.73;;;4.33;;
7215;SDS011;3649;48.798;9.798;2023-05-15T08:53:15;4.60;;;4.07;;
7215;SDS011;3649;48.798;9.798;2023-05-15T08:55:42;5.10;;;4.33;;
7215;SDS011;3649;48.798;9.798;2023-05-15T08:58:09;8.30;;;4.23;;
7215;SDS011;3649;48.798;9.798;2023-05-15T09:00:37;4.63;;;4.27;;
7215;SDS011;3649;48.798;9.798;2023-05-15T09:03:04;4.43;;;4.13;;
7215;SDS011;3649;48.798;9.798;2023-05-15T09:05:32;4.57;;;4.17;;
7215;SDS011;3649;48.798;9.798;2023-05-15T09:07:59;4.93;;;4.43;;
7215;SDS011;3649;48.798;9.798;2023-05-15T09:10:29;4.77;;;4.30;;
7215;SDS011;3649;48.798;9.798;2023-05-15T09:12:57;3.93;;;3.67;;
7215;SDS011;3649;48.798;9.798;2023-05-15T09:15:27;4.33;;;4.03;;
7215;SDS011;3649;48.798;9.798;2023-05-15T09:17:55;4.47;;;3.80;;
7215;SDS011;3649;48.798;9.798;2023-05-15T09:22:57;4.30;;;4.00;;
7215;SDS011;3649;48.798;9.798;2023-05-15T09:25:38;5.30;;;3.70;;
7215;SDS011;3649;48.798;9.798;2023-05-15T09:28:28;4.80;;;3.93;;
7215;SDS011;3649;48.798;9.798;2023-05-15T09:30:57;5.03;;;4.17;;
7215;SDS011;3649;48.798;9.798;2023-05-15T09:33:27;4.67;;;4.10;;
7215;SDS011;3649;48.798;9.798;2023-05-15T09:35:59;6.67;;;5.13;;
7215;SDS011;3649;48.798;9.798;2023-05-15T09:38:27;4.80;;;4.33;;
7215;SDS011;3649;48.798;9.798;2023-05-15T09:41:03;4.83;;;4.43;;
7215;SDS011;3649;48.798;9.798;2023-05-15T09:43:37;6.40;;;4.30;;
7215;SDS011;3649;48.798;9.798;2023-05-15T09:46:07;4.23;;;3.83;;
7215;SDS011;3649;48.798;9.798;2023-05-15T09:48:37;10.10;;;4.10;;
7215;SDS011;3649;48.798;9.798;2023-05-15T09:51:04;8.30;;;3.90;;
7215;SDS011;3649;48.798;9.798;2023-05-15T09:53:39;4.87;;;4.33;;
7215;SDS011;3649;48.798;9.798;2023-05-15T09:56:08;8.30;;;4.00;;
7215;SDS011;3649;48.798;9.798;2023-05-15T09:58:35;4.47;;;4.07;;
7215;SDS011;3649;48.798;9.798;2023-05-15T10:01:02;6.03;;;3.67;;
7215;SDS011;3649;48.798;9.798;2023-05-15T10:03:36;4.27;;;3.97;;
7215;SDS011;3649;48.798;9.798;2023-05-15T10:06:07;4.27;;;3.93;;
7215;SDS011;3649;48.798;9.798;2023-05-15T10:08:49;4.20;;;3.57;;
7215;SDS011;3649;48.798;9.798;2023-05-15T10:11:17;4.17;;;3.77;;
7215;SDS011;3649;48.798;9.798;2023-05-15T10:13:45;4.20;;;3.90;;
7215;SDS011;3649;48.798;9.798;2023-05-15T10:16:12;4.13;;;3.80;;
7215;SDS011;3649;48.798;9.798;2023-05-15T10:18:40;4.43;;;4.00;;
7215;SDS011;3649;48.798;9.798;2023-05-15T10:21:10;4.40;;;4.00;;
7215;SDS011;3649;48.798;9.798;2023-05-15T10:23:39;4.70;;;3.97;;
7215;SDS011;3649;48.798;9.798;2023-05-15T10:26:10;5.67;;;3.93;;
7215;SDS011;3649;48.798;9.798;2023-05-15T10:28:46;4.50;;;3.50;;
7215;SDS011;3649;48.798;9.798;2023-05-15T10:31:13;4.83;;;3.60;;
7215;SDS011;3649;48.798;9.798;2023-05-15T10:33:43;5.07;;;4.00;;
7215;SDS011;3649;48.798;9.798;2023-05-15T10:36:11;5.93;;;4.27;;
7215;SDS011;3649;48.798;9.798;2023-05-15T10:38:39;5.20;;;4.37;;
7215;SDS011;3649;48.798;9.798;2023-05-15T10:41:07;4.80;;;4.07;;
7215;SDS011;3649;48.798;9.798;2023-05-15T10:43:43;5.50;;;4.97;;
7215;SDS011;3649;48.798;9.798;2023-05-15T10:46:11;5.73;;;4.40;;
7215;SDS011;3649;48.798;9.798;2023-05-15T10:48:40;5.83;;;4.93;;
7215;SDS011;3649;48.798;9.798;2023-05-15T10:51:14;7.40;;;5.00;;
7215;SDS011;3649;48.798;9.798;2023-05-15T10:53:43;5.60;;;4.77;;
7215;SDS011;3649;48.798;9.798;2023-05-15T10:56:12;5.27;;;4.33;;
7215;SDS011;3649;48.798;9.798;2023-05-15T11:01:26;4.90;;;4.50;;
7215;SDS011;3649;48.798;9.798;2023-05-15T11:04:10;4.50;;;4.10;;
7215;SDS011;3649;48.798;9.798;2023-05-15T11:06:40;5.10;;;4.10;;
7215;SDS011;3649;48.798;9.798;2023-05-15T11:14:17;5.03;;;4.50;;
7215;SDS011;3649;48.798;9.798;2023-05-15T11:19:30;8.40;;;4.87;;
7215;SDS011;3649;48.798;9.798;2023-05-15T11:21:58;9.70;;;5.57;;
7215;SDS011;3649;48.798;9.798;2023-05-15T11:27:18;5.67;;;5.10;;
7215;SDS011;3649;48.798;9.798;2023-05-15T11:32:44;5.77;;;5.27;;
7215;SDS011;3649;48.798;9.798;2023-05-15T11:35:21;4.60;;;4.20;;
7215;SDS011;3649;48.798;9.798;2023-05-15T11:37:51;9.03;;;4.53;;
7215;SDS011;3649;48.798;9.798;2023-05-15T11:43:01;4.77;;;4.37;;
7215;SDS011;3649;48.798;9.798;2023-05-15T11:45:33;6.53;;;4.17;;
7215;SDS011;3649;48.798;9.798;2023-05-15T11:48:06;7.17;;;3.67;;
7215;SDS011;3649;48.798;9.798;2023-05-15T11:50:37;4.17;;;3.77;;
7215;SDS011;3649;48.798;9.798;2023-05-15T11:53:05;4.13;;;3.50;;
7215;SDS011;3649;48.798;9.798;2023-05-15T11:55:33;10.13;;;4.40;;
7215;SDS011;3649;48.798;9.798;2023-05-15T11:58:02;8.00;;;4.37;;
7215;SDS011;3649;48.798;9.798;2023-05-15T12:00:30;5.70;;;3.67;;
7215;SDS011;3649;48.798;9.798;2023-05-15T12:02:57;6.37;;;3.83;;
7215;SDS011;3649;48.798;9.798;2023-05-15T12:05:24;3.90;;;3.60;;
7215;SDS011;3649;48.798;9.798;2023-05-15T12:07:50;4.27;;;3.67;;
7215;SDS011;3649;48.798;9.798;2023-05-15T12:10:18;4.67;;;3.70;;
7215;SDS011;3649;48.798;9.798;2023-05-15T12:12:45;5.30;;;3.70;;
7215;SDS011;3649;48.798;9.798;2023-05-15T12:15:12;5.00;;;3.63;;
7215;SDS011;3649;48.798;9.798;2023-05-15T12:17:44;4.00;;;3.60;;
7215;SDS011;3649;48.798;9.798;2023-05-15T12:20:15;3.73;;;3.43;;
7215;SDS011;3649;48.798;9.798;2023-05-15T12:22:43;3.97;;;3.57;;
7215;SDS011;3649;48.798;9.798;2023-05-15T12:25:11;1.97;;;1.87;;
7215;SDS011;3649;48.798;9.798;2023-05-15T12:27:40;2.07;;;1.63;;
7215;SDS011;3649;48.798;9.798;2023-05-15T12:30:08;3.13;;;2.13;;
7215;SDS011;3649;48.798;9.798;2023-05-15T12:32:36;2.63;;;1.70;;
7215;SDS011;3649;48.798;9.798;2023-05-15T12:35:04;2.17;;;1.97;;
7215;SDS011;3649;48.798;9.798;2023-05-15T12:37:31;1.83;;;1.73;;
7215;SDS011;3649;48.798;9.798;2023-05-15T12:40:01;2.07;;;1.97;;
7215;SDS011;3649;48.798;9.798;2023-05-15T12:42:37;2.23;;;2.00;;
7215;SDS011;3649;48.798;9.798;2023-05-15T12:45:14;2.03;;;1.90;;
7215;SDS011;3649;48.798;9.798;2023-05-15T12:47:44;2.97;;;1.97;;
7215;SDS011;3649;48.798;9.798;2023-05-15T12:50:17;2.53;;;2.43;;
7215;SDS011;3649;48.798;9.798;2023-05-15T12:52:54;2.40;;;2.20;;
7215;SDS011;3649;48.798;9.798;2023-05-15T12:55:26;1.93;;;1.83;;
7215;SDS011;3649;48.798;9.798;2023-05-15T12:57:59;1.60;;;1.60;;
7215;SDS011;3649;48.798;9.798;2023-05-15T13:00:34;1.60;;;1.60;;
7215;SDS011;3649;48.798;9.798;2023-05-15T13:03:03;1.63;;;1.53;;
7215;SDS011;3649;48.798;9.798;2023-05-15T13:05:30;1.80;;;1.70;;
7215;SDS011;3649;48.798;9.798;2023-05-15T13:07:58;1.73;;;1.63;;
7215;SDS011;3649;48.798;9.798;2023-05-15T13:10:26;1.97;;;1.73;;
7215;SDS011;3649;48.798;9.798;2023-05-15T13:12:54;1.90;;;1.80;;
7215;SDS011;3649;48.798;9.798;2023-05-15T13:15:24;2.30;;;2.20;;
7215;SDS011;3649;48.798;9.798;2023-05-15T13:17:52;3.07;;;2.27;;
7215;SDS011;3649;48.798;9.798;2023-05-15T13:20:26;2.47;;;2.30;;
7215;SDS011;3649;48.798;9.798;2023-05-15T13:22:54;2.60;;;2.40;;
7215;SDS011;3649;48.798;9.798;2023-05-15T13:25:21;11.27;;;3.37;;
7215;SDS011;3649;48.798;9.798;2023-05-15T13:27:49;10.77;;;6.67;;
7215;SDS011;3649;48.798;9.798;2023-05-15T13:30:16;4.03;;;3.37;;
7215;SDS011;3649;48.798;9.798;2023-05-15T13:32:44;4.00;;;2.63;;
7215;SDS011;3649;48.798;9.798;2023-05-15T13:35:11;2.37;;;2.20;;
7215;SDS011;3649;48.798;9.798;2023-05-15T13:37:38;1.93;;;1.83;;
7215;SDS011;3649;48.798;9.798;2023-05-15T13:40:06;1.77;;;1.67;;
7215;SDS011;3649;48.798;9.798;2023-05-15T13:42:37;2.03;;;1.80;;
7215;SDS011;3649;48.798;9.798;2023-05-15T13:45:08;1.90;;;1.80;;
7215;SDS011;3649;48.798;9.798;2023-05-15T13:47:36;1.87;;;1.77;;
7215;SDS011;3649;48.798;9.798;2023-05-15T13:50:07;2.13;;;1.90;;
7215;SDS011;3649;48.798;9.798;2023-05-15T13:52:35;2.00;;;1.90;;
7215;SDS011;3649;48.798;9.798;2023-05-15T13:55:03;2.30;;;1.70;;
7215;SDS011;3649;48.798;9.798;2023-05-15T13:57:30;1.70;;;1.60;;
7215;SDS011;3649;48.798;9.798;2023-05-15T13:59:57;2.07;;;1.97;;
7215;SDS011;3649;48.798;9.798;2023-05-15T14:02:24;5.00;;;4.33;;
7215;SDS011;3649;48.798;9.798;2023-05-15T14:04:52;2.27;;;2.17;;
7215;SDS011;3649;48.798;9.798;2023-05-15T14:07:22;2.57;;;2.37;;
7215;SDS011;3649;48.798;9.798;2023-05-15T14:09:50;2.63;;;2.40;;
7215;SDS011;3649;48.798;9.798;2023-05-15T14:12:17;2.17;;;1.90;;
7215;SDS011;3649;48.798;9.798;2023-05-15T14:14:44;2.03;;;1.93;;
7215;SDS011;3649;48.798;9.798;2023-05-15T14:17:12;1.97;;;1.87;;
7215;SDS011;3649;48.798;9.798;2023-05-15T14:19:40;2.10;;;2.00;;
7215;SDS011;3649;48.798;9.798;2023-05-15T14:22:07;2.40;;;2.20;;
7215;SDS011;3649;48.798;9.798;2023-05-15T14:24:34;2.80;;;2.50;;
7215;SDS011;3649;48.798;9.798;2023-05-15T14:27:01;2.23;;;2.13;;
7215;SDS011;3649;48.798;9.798;2023-05-15T14:29:28;3.17;;;2.40;;
7215;SDS011;3649;48.798;9.798;2023-05-15T14:31:55;2.50;;;2.40;;
7215;SDS011;3649;48.798;9.798;2023-05-15T14:34:22;2.90;;;2.70;;
7215;SDS011;3649;48.798;9.798;2023-05-15T14:36:49;2.70;;;2.50;;
7215;SDS011;3649;48.798;9.798;2023-05-15T14:39:16;2.47;;;2.23;;
7215;SDS011;3649;48.798;9.798;2023-05-15T14:41:44;4.43;;;2.60;;
7215;SDS011;3649;48.798;9.798;2023-05-15T14:44:11;4.43;;;2.63;;
7215;SDS011;3649;48.798;9.798;2023-05-15T14:46:40;6.07;;;5.57;;
7215;SDS011;3649;48.798;9.798;2023-05-15T14:49:07;5.63;;;3.90;;
7215;SDS011;3649;48.798;9.798;2023-05-15T14:51:34;5.43;;;3.03;;
7215;SDS011;3649;48.798;9.798;2023-05-15T14:54:01;3.17;;;2.97;;
7215;SDS011;3649;48.798;9.798;2023-05-15T14:56:30;3.20;;;2.90;;
7215;SDS011;3649;48.798;9.798;2023-05-15T14:58:57;3.60;;;2.90;;
7215;SDS011;3649;48.798;9.798;2023-05-15T15:01:24;2.90;;;2.70;;
7215;SDS011;3649;48.798;9.798;2023-05-15T15:03:51;3.07;;;2.87;;
7215;SDS011;3649;48.798;9.798;2023-05-15T15:06:18;5.00;;;2.70;;
7215;SDS011;3649;48.798;9.798;2023-05-15T15:08:45;3.20;;;3.00;;
7215;SDS011;3649;48.798;9.798;2023-05-15T15:11:12;3.53;;;3.23;;
7215;SDS011;3649;48.798;9.798;2023-05-15T15:13:38;2.90;;;2.63;;
7215;SDS011;3649;48.798;9.798;2023-05-15T15:16:05;3.60;;;2.90;;
7215;SDS011;3649;48.798;9.798;2023-05-15T15:18:33;3.47;;;2.87;;
7215;SDS011;3649;48.798;9.798;2023-05-15T15:21:00;4.47;;;2.97;;
7215;SDS011;3649;48.798;9.798;2023-05-15T15:23:27;3.60;;;3.00;;
7215;SDS011;3649;48.798;9.798;2023-05-15T15:25:54;3.03;;;2.83;;
7215;SDS011;3649;48.798;9.798;2023-05-15T15:28:21;3.90;;;2.80;;
7215;SDS011;3649;48.798;9.798;2023-05-15T15:30:48;4.20;;;2.40;;
7215;SDS011;3649;48.798;9.798;2023-05-15T15:33:15;3.37;;;2.80;;
7215;SDS011;3649;48.798;9.798;2023-05-15T15:35:42;3.83;;;2.67;;
7215;SDS011;3649;48.798;9.798;2023-05-15T15:38:09;4.37;;;2.60;;
7215;SDS011;3649;48.798;9.798;2023-05-15T15:40:39;3.20;;;2.90;;
7215;SDS011;3649;48.798;9.798;2023-05-15T15:43:06;3.37;;;2.67;;
7215;SDS011;3649;48.798;9.798;2023-05-15T15:45:33;3.10;;;2.80;;
7215;SDS011;3649;48.798;9.798;2023-05-15T15:48:00;3.83;;;3.03;;
7215;SDS011;3649;48.798;9.798;2023-05-15T15:50:27;3.70;;;2.80;;
7215;SDS011;3649;48.798;9.798;2023-05-15T15:52:53;11.20;;;4.83;;
7215;SDS011;3649;48.798;9.798;2023-05-15T15:55:20;20.30;;;8.17;;
7215;SDS011;3649;48.798;9.798;2023-05-15T15:57:47;12.87;;;7.37;;
7215;SDS011;3649;48.798;9.798;2023-05-15T16:00:15;8.00;;;5.40;;